sensor_id;sensor_type;location;lat;lon;timestamp;temperature;humidity
62581;DHT22;48640;48.770;9.148;2023-04-24T00:00:14;12.10;98.80
62581;DHT22;48640;48.770;9.148;2023-04-24T00:02:43;12.30;98.80
62581;DHT22;48640;48.770;9.148;2023-04-24T00:05:14;12.30;99.10
62581;DHT22;48640;48.770;9.148;2023-04-24T00:07:41;12.00;99.00
62581;DHT22;48640;48.770;9.148;2023-04-24T00:10:09;11.90;98.60
62581;DHT22;48640;48.770;9.148;2023-04-24T00:12:36;12.20;98.60
62581;DHT22;48640;48.770;9.148;2023-04-24T00:15:05;12.30;98.90
62581;DHT22;48640;48.770;9.148;2023-04-24T00:17:32;12.40;98.50
62581;DHT22;48640;48.770;9.148;2023-04-24T00:19:59;12.30;98.30
62581;DHT22;48640;48.770;9.148;2023-04-24T00:22:28;11.90;97.90
62581;DHT22;48640;48.770;9.148;2023-04-24T00:24:55;11.90;98.10
62581;DHT22;48640;48.770;9.148;2023-04-24T00:27:22;12.10;98.00
62581;DHT22;48640;48.770;9.148;2023-04-24T00:29:49;12.40;98.00
62581;DHT22;48640;48.770;9.148;2023-04-24T00:32:17;12.10;97.70
62581;DHT22;48640;48.770;9.148;2023-04-24T00:34:44;12.10;97.70
62581;DHT22;48640;48.770;9.148;2023-04-24T00:37:10;12.40;97.60
62581;DHT22;48640;48.770;9.148;2023-04-24T00:39:37;12.50;97.40
62581;DHT22;48640;48.770;9.148;2023-04-24T00:42:04;12.60;97.30
62581;DHT22;48640;48.770;9.148;2023-04-24T00:44:32;12.70;96.90
62581;DHT22;48640;48.770;9.148;2023-04-24T00:46:59;12.30;96.30
62581;DHT22;48640;48.770;9.148;2023-04-24T00:49:28;12.20;96.50
62581;DHT22;48640;48.770;9.148;2023-04-24T00:51:55;12.30;97.20
62581;DHT22;48640;48.770;9.148;2023-04-24T00:54:22;12.30;96.90
62581;DHT22;48640;48.770;9.148;2023-04-24T00:56:49;12.60;97.00
62581;DHT22;48640;48.770;9.148;2023-04-24T00:59:17;12.60;97.10
62581;DHT22;48640;48.770;9.148;2023-04-24T01:01:44;12.10;96.80
62581;DHT22;48640;48.770;9.148;2023-04-24T01:04:12;12.30;97.10
62581;DHT22;48640;48.770;9.148;2023-04-24T01:06:43;12.60;96.40
62581;DHT22;48640;48.770;9.148;2023-04-24T01:09:11;12.40;96.50
62581;DHT22;48640;48.770;9.148;2023-04-24T01:11:40;12.30;96.30
62581;DHT22;48640;48.770;9.148;2023-04-24T01:14:07;12.70;96.80
62581;DHT22;48640;48.770;9.148;2023-04-24T01:16:35;12.10;96.30
62581;DHT22;48640;48.770;9.148;2023-04-24T01:19:03;12.20;96.30
62581;DHT22;48640;48.770;9.148;2023-04-24T01:21:30;12.60;96.90
62581;DHT22;48640;48.770;9.148;2023-04-24T01:24:02;12.60;97.30
62581;DHT22;48640;48.770;9.148;2023-04-24T01:26:29;12.60;96.80
62581;DHT22;48640;48.770;9.148;2023-04-24T01:28:56;12.60;96.90
62581;DHT22;48640;48.770;9.148;2023-04-24T01:31:23;12.60;96.70
62581;DHT22;48640;48.770;9.148;2023-04-24T01:33:51;12.10;96.80
62581;DHT22;48640;48.770;9.148;2023-04-24T01:36:18;12.20;97.80
62581;DHT22;48640;48.770;9.148;2023-04-24T01:38:45;12.20;98.80
62581;DHT22;48640;48.770;9.148;2023-04-24T01:41:13;11.90;99.50
62581;DHT22;48640;48.770;9.148;2023-04-24T01:43:40;12.40;99.70
62581;DHT22;48640;48.770;9.148;2023-04-24T01:46:07;12.00;99.20
62581;DHT22;48640;48.770;9.148;2023-04-24T01:48:34;11.80;98.80
62581;DHT22;48640;48.770;9.148;2023-04-24T01:51:02;12.20;99.40
62581;DHT22;48640;48.770;9.148;2023-04-24T01:53:28;12.20;99.60
62581;DHT22;48640;48.770;9.148;2023-04-24T01:55:55;12.10;99.10
62581;DHT22;48640;48.770;9.148;2023-04-24T01:58:23;12.10;99.10
62581;DHT22;48640;48.770;9.148;2023-04-24T02:00:51;12.40;99.20
62581;DHT22;48640;48.770;9.148;2023-04-24T02:03:18;11.80;99.40
62581;DHT22;48640;48.770;9.148;2023-04-24T02:05:45;12.40;99.10
62581;DHT22;48640;48.770;9.148;2023-04-24T02:08:11;12.20;99.90
62581;DHT22;48640;48.770;9.148;2023-04-24T02:10:38;12.10;99.90
62581;DHT22;48640;48.770;9.148;2023-04-24T02:13:05;11.80;99.90
62581;DHT22;48640;48.770;9.148;2023-04-24T02:15:33;12.20;99.90
62581;DHT22;48640;48.770;9.148;2023-04-24T02:18:01;12.30;99.90
62581;DHT22;48640;48.770;9.148;2023-04-24T02:20:28;11.80;99.90
62581;DHT22;48640;48.770;9.148;2023-04-24T02:22:55;11.90;99.90
62581;DHT22;48640;48.770;9.148;2023-04-24T02:25:22;12.20;99.90
62581;DHT22;48640;48.770;9.148;2023-04-24T02:27:48;12.10;99.90
62581;DHT22;48640;48.770;9.148;2023-04-24T02:30:15;11.70;99.90
62581;DHT22;48640;48.770;9.148;2023-04-24T02:32:43;11.70;99.50
62581;DHT22;48640;48.770;9.148;2023-04-24T02:35:10;12.10;99.30
62581;DHT22;48640;48.770;9.148;2023-04-24T02:37:37;12.20;99.60
62581;DHT22;48640;48.770;9.148;2023-04-24T02:40:05;11.90;99.80
62581;DHT22;48640;48.770;9.148;2023-04-24T02:42:32;12.30;99.90
62581;DHT22;48640;48.770;9.148;2023-04-24T02:45:00;11.80;99.90
62581;DHT22;48640;48.770;9.148;2023-04-24T02:47:26;12.40;99.90
62581;DHT22;48640;48.770;9.148;2023-04-24T02:49:55;12.20;99.90
62581;DHT22;48640;48.770;9.148;2023-04-24T02:52:21;11.60;99.90
62581;DHT22;48640;48.770;9.148;2023-04-24T02:54:48;12.20;99.90
62581;DHT22;48640;48.770;9.148;2023-04-24T02:57:15;11.70;99.90
62581;DHT22;48640;48.770;9.148;2023-04-24T02:59:42;11.60;99.90
62581;DHT22;48640;48.770;9.148;2023-04-24T03:02:09;11.80;99.90
62581;DHT22;48640;48.770;9.148;2023-04-24T03:04:35;11.90;99.90
62581;DHT22;48640;48.770;9.148;2023-04-24T03:07:04;11.60;99.90
62581;DHT22;48640;48.770;9.148;2023-04-24T03:09:31;11.30;99.90
62581;DHT22;48640;48.770;9.148;2023-04-24T03:11:58;11.20;99.90
62581;DHT22;48640;48.770;9.148;2023-04-24T03:14:24;11.50;99.90
62581;DHT22;48640;48.770;9.148;2023-04-24T03:16:51;11.40;99.90
62581;DHT22;48640;48.770;9.148;2023-04-24T03:19:18;11.40;99.90
62581;DHT22;48640;48.770;9.148;2023-04-24T03:21:45;11.30;99.90
62581;DHT22;48640;48.770;9.148;2023-04-24T03:24:13;11.20;99.90
62581;DHT22;48640;48.770;9.148;2023-04-24T03:26:40;12.00;99.90
62581;DHT22;48640;48.770;9.148;2023-04-24T03:29:07;11.50;99.90
62581;DHT22;48640;48.770;9.148;2023-04-24T03:31:33;11.20;99.90
62581;DHT22;48640;48.770;9.148;2023-04-24T03:34:00;11.10;99.90
62581;DHT22;48640;48.770;9.148;2023-04-24T03:36:27;10.90;99.90
62581;DHT22;48640;48.770;9.148;2023-04-24T03:38:54;11.20;99.90
62581;DHT22;48640;48.770;9.148;2023-04-24T03:41:22;11.10;99.90
62581;DHT22;48640;48.770;9.148;2023-04-24T03:43:49;11.20;99.90
62581;DHT22;48640;48.770;9.148;2023-04-24T03:46:16;11.20;99.90
62581;DHT22;48640;48.770;9.148;2023-04-24T03:48:43;11.60;99.90
62581;DHT22;48640;48.770;9.148;2023-04-24T03:51:09;11.10;99.90
62581;DHT22;48640;48.770;9.148;2023-04-24T03:53:36;11.50;99.90
62581;DHT22;48640;48.770;9.148;2023-04-24T03:56:03;11.70;99.90
62581;DHT22;48640;48.770;9.148;2023-04-24T03:58:31;11.60;99.90
62581;DHT22;48640;48.770;9.148;2023-04-24T04:00:58;11.30;99.90
62581;DHT22;48640;48.770;9.148;2023-04-24T04:03:25;11.50;99.90
62581;DHT22;48640;48.770;9.148;2023-04-24T04:05:52;11.50;99.90
62581;DHT22;48640;48.770;9.148;2023-04-24T04:08:19;11.40;99.90
62581;DHT22;48640;48.770;9.148;2023-04-24T04:10:46;11.00;99.90
62581;DHT22;48640;48.770;9.148;2023-04-24T04:13:13;11.00;99.90
62581;DHT22;48640;48.770;9.148;2023-04-24T04:15:41;10.90;99.90
62581;DHT22;48640;48.770;9.148;2023-04-24T04:18:08;11.00;99.90
62581;DHT22;48640;48.770;9.148;2023-04-24T04:20:35;10.90;99.90
62581;DHT22;48640;48.770;9.148;2023-04-24T04:23:02;11.70;99.90
62581;DHT22;48640;48.770;9.148;2023-04-24T04:25:28;11.20;99.90
62581;DHT22;48640;48.770;9.148;2023-04-24T04:27:55;11.30;99.90
62581;DHT22;48640;48.770;9.148;2023-04-24T04:30:23;11.60;99.90
62581;DHT22;48640;48.770;9.148;2023-04-24T04:32:52;11.50;99.90
62581;DHT22;48640;48.770;9.148;2023-04-24T04:35:19;11.40;99.90
62581;DHT22;48640;48.770;9.148;2023-04-24T04:37:46;11.40;99.90
62581;DHT22;48640;48.770;9.148;2023-04-24T04:40:13;11.20;99.90
62581;DHT22;48640;48.770;9.148;2023-04-24T04:42:39;10.90;99.90
62581;DHT22;48640;48.770;9.148;2023-04-24T04:45:07;11.00;99.90
62581;DHT22;48640;48.770;9.148;2023-04-24T04:47:36;11.30;99.90
62581;DHT22;48640;48.770;9.148;2023-04-24T04:50:05;11.10;99.90
62581;DHT22;48640;48.770;9.148;2023-04-24T04:52:32;11.00;99.90
62581;DHT22;48640;48.770;9.148;2023-04-24T04:54:59;11.00;99.90
62581;DHT22;48640;48.770;9.148;2023-04-24T04:57:26;11.10;99.90
62581;DHT22;48640;48.770;9.148;2023-04-24T04:59:53;10.60;99.90
62581;DHT22;48640;48.770;9.148;2023-04-24T05:02:20;10.40;99.90
62581;DHT22;48640;48.770;9.148;2023-04-24T05:04:47;10.50;99.90
62581;DHT22;48640;48.770;9.148;2023-04-24T05:07:15;10.90;99.90
62581;DHT22;48640;48.770;9.148;2023-04-24T05:09:42;10.60;99.90
62581;DHT22;48640;48.770;9.148;2023-04-24T05:12:10;10.70;99.90
62581;DHT22;48640;48.770;9.148;2023-04-24T05:14:37;10.90;99.90
62581;DHT22;48640;48.770;9.148;2023-04-24T05:17:03;10.50;99.90
62581;DHT22;48640;48.770;9.148;2023-04-24T05:19:30;10.50;99.90
62581;DHT22;48640;48.770;9.148;2023-04-24T05:22:01;10.50;99.90
62581;DHT22;48640;48.770;9.148;2023-04-24T05:24:31;10.60;99.90
62581;DHT22;48640;48.770;9.148;2023-04-24T05:26:58;10.60;99.90
62581;DHT22;48640;48.770;9.148;2023-04-24T05:29:25;10.90;99.90
62581;DHT22;48640;48.770;9.148;2023-04-24T05:31:52;10.70;99.90
62581;DHT22;48640;48.770;9.148;2023-04-24T05:34:19;10.60;99.90
62581;DHT22;48640;48.770;9.148;2023-04-24T05:36:46;10.70;99.90
62581;DHT22;48640;48.770;9.148;2023-04-24T05:39:13;10.90;99.90
62581;DHT22;48640;48.770;9.148;2023-04-24T05:41:41;10.60;99.90
62581;DHT22;48640;48.770;9.148;2023-04-24T05:44:08;10.70;99.90
62581;DHT22;48640;48.770;9.148;2023-04-24T05:46:35;11.10;99.90
62581;DHT22;48640;48.770;9.148;2023-04-24T05:49:02;11.20;99.90
62581;DHT22;48640;48.770;9.148;2023-04-24T05:51:29;11.40;99.90
62581;DHT22;48640;48.770;9.148;2023-04-24T05:53:57;11.40;99.90
62581;DHT22;48640;48.770;9.148;2023-04-24T05:56:24;10.90;99.10
62581;DHT22;48640;48.770;9.148;2023-04-24T05:58:52;11.40;99.50
62581;DHT22;48640;48.770;9.148;2023-04-24T06:01:19;11.30;99.90
62581;DHT22;48640;48.770;9.148;2023-04-24T06:03:46;11.30;99.90
62581;DHT22;48640;48.770;9.148;2023-04-24T06:06:13;11.40;99.80
62581;DHT22;48640;48.770;9.148;2023-04-24T06:08:41;11.40;99.90
62581;DHT22;48640;48.770;9.148;2023-04-24T06:11:09;11.10;99.70
62581;DHT22;48640;48.770;9.148;2023-04-24T06:13:36;11.40;99.60
62581;DHT22;48640;48.770;9.148;2023-04-24T06:16:04;11.50;99.50
62581;DHT22;48640;48.770;9.148;2023-04-24T06:18:31;11.50;99.10
62581;DHT22;48640;48.770;9.148;2023-04-24T06:20:58;11.00;99.10
62581;DHT22;48640;48.770;9.148;2023-04-24T06:23:25;11.00;99.30
62581;DHT22;48640;48.770;9.148;2023-04-24T06:25:52;11.70;98.70
62581;DHT22;48640;48.770;9.148;2023-04-24T06:28:19;12.40;97.10
62581;DHT22;48640;48.770;9.148;2023-04-24T06:30:46;13.10;96.50
62581;DHT22;48640;48.770;9.148;2023-04-24T06:33:14;14.00;95.20
62581;DHT22;48640;48.770;9.148;2023-04-24T06:35:41;13.70;93.60
62581;DHT22;48640;48.770;9.148;2023-04-24T06:38:07;14.30;92.20
62581;DHT22;48640;48.770;9.148;2023-04-24T06:40:34;14.80;91.50
62581;DHT22;48640;48.770;9.148;2023-04-24T06:43:01;14.80;86.60
62581;DHT22;48640;48.770;9.148;2023-04-24T06:45:28;14.50;90.00
62581;DHT22;48640;48.770;9.148;2023-04-24T06:47:55;15.00;87.50
62581;DHT22;48640;48.770;9.148;2023-04-24T06:50:24;14.90;86.20
62581;DHT22;48640;48.770;9.148;2023-04-24T06:52:50;14.70;86.80
62581;DHT22;48640;48.770;9.148;2023-04-24T06:55:17;15.00;87.40
62581;DHT22;48640;48.770;9.148;2023-04-24T06:57:44;15.90;87.10
62581;DHT22;48640;48.770;9.148;2023-04-24T07:00:12;16.30;83.30
62581;DHT22;48640;48.770;9.148;2023-04-24T07:02:39;16.60;78.70
62581;DHT22;48640;48.770;9.148;2023-04-24T07:05:06;16.50;78.40
62581;DHT22;48640;48.770;9.148;2023-04-24T07:07:35;16.20;77.00
62581;DHT22;48640;48.770;9.148;2023-04-24T07:10:04;16.20;75.00
62581;DHT22;48640;48.770;9.148;2023-04-24T07:12:31;16.10;75.80
62581;DHT22;48640;48.770;9.148;2023-04-24T07:14:57;15.20;78.80
62581;DHT22;48640;48.770;9.148;2023-04-24T07:17:24;14.50;78.60
62581;DHT22;48640;48.770;9.148;2023-04-24T07:19:51;14.20;81.00
62581;DHT22;48640;48.770;9.148;2023-04-24T07:22:18;14.40;79.80
62581;DHT22;48640;48.770;9.148;2023-04-24T07:24:46;13.90;82.10
62581;DHT22;48640;48.770;9.148;2023-04-24T07:27:13;14.00;82.20
62581;DHT22;48640;48.770;9.148;2023-04-24T07:29:40;13.60;83.10
62581;DHT22;48640;48.770;9.148;2023-04-24T07:32:07;13.70;82.10
62581;DHT22;48640;48.770;9.148;2023-04-24T07:34:34;13.80;81.00
62581;DHT22;48640;48.770;9.148;2023-04-24T07:37:01;14.00;79.20
62581;DHT22;48640;48.770;9.148;2023-04-24T07:39:28;15.60;76.20
62581;DHT22;48640;48.770;9.148;2023-04-24T07:41:57;16.90;70.70
62581;DHT22;48640;48.770;9.148;2023-04-24T07:44:25;17.90;67.90
62581;DHT22;48640;48.770;9.148;2023-04-24T07:46:52;18.20;60.30
62581;DHT22;48640;48.770;9.148;2023-04-24T07:49:19;18.50;60.40
62581;DHT22;48640;48.770;9.148;2023-04-24T07:51:46;18.60;57.40
62581;DHT22;48640;48.770;9.148;2023-04-24T07:54:12;19.50;58.70
62581;DHT22;48640;48.770;9.148;2023-04-24T07:56:40;19.20;54.10
62581;DHT22;48640;48.770;9.148;2023-04-24T07:59:10;18.20;55.00
62581;DHT22;48640;48.770;9.148;2023-04-24T08:01:37;18.00;56.20
62581;DHT22;48640;48.770;9.148;2023-04-24T08:04:04;18.00;55.40
62581;DHT22;48640;48.770;9.148;2023-04-24T08:06:31;17.30;54.10
62581;DHT22;48640;48.770;9.148;2023-04-24T08:08:58;16.30;55.60
62581;DHT22;48640;48.770;9.148;2023-04-24T08:11:25;15.60;58.00
62581;DHT22;48640;48.770;9.148;2023-04-24T08:13:51;14.60;58.80
62581;DHT22;48640;48.770;9.148;2023-04-24T08:16:21;15.00;60.70
62581;DHT22;48640;48.770;9.148;2023-04-24T08:18:49;15.70;60.10
62581;DHT22;48640;48.770;9.148;2023-04-24T08:21:16;15.60;57.70
62581;DHT22;48640;48.770;9.148;2023-04-24T08:23:44;16.70;57.00
62581;DHT22;48640;48.770;9.148;2023-04-24T08:26:11;17.30;57.20
62581;DHT22;48640;48.770;9.148;2023-04-24T08:28:38;18.00;55.20
62581;DHT22;48640;48.770;9.148;2023-04-24T08:31:04;18.00;53.10
62581;DHT22;48640;48.770;9.148;2023-04-24T08:33:33;17.80;54.10
62581;DHT22;48640;48.770;9.148;2023-04-24T08:36:00;17.80;52.90
62581;DHT22;48640;48.770;9.148;2023-04-24T08:38:28;17.30;53.60
62581;DHT22;48640;48.770;9.148;2023-04-24T08:40:55;16.30;54.80
62581;DHT22;48640;48.770;9.148;2023-04-24T08:43:23;16.00;56.40
62581;DHT22;48640;48.770;9.148;2023-04-24T08:45:50;15.10;56.70
62581;DHT22;48640;48.770;9.148;2023-04-24T08:48:17;14.40;59.20
62581;DHT22;48640;48.770;9.148;2023-04-24T08:50:46;14.20;61.10
62581;DHT22;48640;48.770;9.148;2023-04-24T08:53:14;13.90;65.50
62581;DHT22;48640;48.770;9.148;2023-04-24T08:55:41;13.90;68.00
62581;DHT22;48640;48.770;9.148;2023-04-24T08:58:10;14.10;67.60
62581;DHT22;48640;48.770;9.148;2023-04-24T09:00:39;16.20;66.00
62581;DHT22;48640;48.770;9.148;2023-04-24T09:03:10;16.40;61.90
62581;DHT22;48640;48.770;9.148;2023-04-24T09:05:37;15.80;59.60
62581;DHT22;48640;48.770;9.148;2023-04-24T09:08:08;15.60;61.30
62581;DHT22;48640;48.770;9.148;2023-04-24T09:10:36;15.40;60.10
62581;DHT22;48640;48.770;9.148;2023-04-24T09:13:03;15.20;62.20
62581;DHT22;48640;48.770;9.148;2023-04-24T09:15:30;14.30;63.50
62581;DHT22;48640;48.770;9.148;2023-04-24T09:17:57;14.70;66.10
62581;DHT22;48640;48.770;9.148;2023-04-24T09:20:24;14.30;67.40
62581;DHT22;48640;48.770;9.148;2023-04-24T09:22:53;13.90;67.90
62581;DHT22;48640;48.770;9.148;2023-04-24T09:25:22;13.30;69.00
62581;DHT22;48640;48.770;9.148;2023-04-24T09:27:53;13.30;73.50
62581;DHT22;48640;48.770;9.148;2023-04-24T09:30:21;12.70;73.80
62581;DHT22;48640;48.770;9.148;2023-04-24T09:32:49;12.20;75.70
62581;DHT22;48640;48.770;9.148;2023-04-24T09:35:15;12.30;77.30
62581;DHT22;48640;48.770;9.148;2023-04-24T09:37:43;12.40;77.90
62581;DHT22;48640;48.770;9.148;2023-04-24T09:40:12;12.40;76.60
62581;DHT22;48640;48.770;9.148;2023-04-24T09:42:43;12.70;76.40
62581;DHT22;48640;48.770;9.148;2023-04-24T09:45:11;13.20;77.20
62581;DHT22;48640;48.770;9.148;2023-04-24T09:47:38;14.00;74.20
62581;DHT22;48640;48.770;9.148;2023-04-24T09:50:15;14.20;70.30
62581;DHT22;48640;48.770;9.148;2023-04-24T09:52:46;14.80;70.00
62581;DHT22;48640;48.770;9.148;2023-04-24T09:55:17;15.10;68.50
62581;DHT22;48640;48.770;9.148;2023-04-24T09:57:52;14.50;64.60
62581;DHT22;48640;48.770;9.148;2023-04-24T10:00:23;14.10;65.20
62581;DHT22;48640;48.770;9.148;2023-04-24T10:02:53;14.40;67.00
62581;DHT22;48640;48.770;9.148;2023-04-24T10:05:23;13.90;64.00
62581;DHT22;48640;48.770;9.148;2023-04-24T10:07:50;14.00;64.80
62581;DHT22;48640;48.770;9.148;2023-04-24T10:10:17;14.60;62.90
62581;DHT22;48640;48.770;9.148;2023-04-24T10:12:44;15.30;60.00
62581;DHT22;48640;48.770;9.148;2023-04-24T10:15:13;15.60;59.40
62581;DHT22;48640;48.770;9.148;2023-04-24T10:17:41;17.70;56.90
62581;DHT22;48640;48.770;9.148;2023-04-24T10:20:08;19.70;50.50
62581;DHT22;48640;48.770;9.148;2023-04-24T10:22:35;20.20;45.10
62581;DHT22;48640;48.770;9.148;2023-04-24T10:25:04;20.40;42.90
62581;DHT22;48640;48.770;9.148;2023-04-24T10:27:32;19.90;43.60
62581;DHT22;48640;48.770;9.148;2023-04-24T10:30:00;20.60;42.20
62581;DHT22;48640;48.770;9.148;2023-04-24T10:32:28;20.50;40.90
62581;DHT22;48640;48.770;9.148;2023-04-24T10:34:55;19.30;42.00
62581;DHT22;48640;48.770;9.148;2023-04-24T10:37:23;18.30;44.40
62581;DHT22;48640;48.770;9.148;2023-04-24T10:39:50;17.50;46.00
62581;DHT22;48640;48.770;9.148;2023-04-24T10:42:20;16.60;48.40
62581;DHT22;48640;48.770;9.148;2023-04-24T10:44:47;15.40;49.00
62581;DHT22;48640;48.770;9.148;2023-04-24T10:47:14;15.50;51.30
62581;DHT22;48640;48.770;9.148;2023-04-24T10:49:45;15.30;52.30
62581;DHT22;48640;48.770;9.148;2023-04-24T10:52:12;14.90;52.90
62581;DHT22;48640;48.770;9.148;2023-04-24T10:54:44;14.30;53.60
62581;DHT22;48640;48.770;9.148;2023-04-24T10:57:28;14.30;54.10
62581;DHT22;48640;48.770;9.148;2023-04-24T11:00:13;14.10;55.40
62581;DHT22;48640;48.770;9.148;2023-04-24T11:02:41;14.20;57.50
62581;DHT22;48640;48.770;9.148;2023-04-24T11:05:16;13.90;56.10
62581;DHT22;48640;48.770;9.148;2023-04-24T11:08:12;14.20;55.70
62581;DHT22;48640;48.770;9.148;2023-04-24T11:10:40;14.30;56.70
62581;DHT22;48640;48.770;9.148;2023-04-24T11:13:07;13.80;57.40
62581;DHT22;48640;48.770;9.148;2023-04-24T11:15:34;13.60;57.10
62581;DHT22;48640;48.770;9.148;2023-04-24T11:18:01;13.80;55.90
62581;DHT22;48640;48.770;9.148;2023-04-24T11:20:30;14.20;56.50
62581;DHT22;48640;48.770;9.148;2023-04-24T11:23:03;14.30;56.70
62581;DHT22;48640;48.770;9.148;2023-04-24T11:25:32;14.40;55.90
62581;DHT22;48640;48.770;9.148;2023-04-24T11:28:04;14.10;56.00
62581;DHT22;48640;48.770;9.148;2023-04-24T11:30:32;14.40;56.20
62581;DHT22;48640;48.770;9.148;2023-04-24T11:33:02;15.90;53.90
62581;DHT22;48640;48.770;9.148;2023-04-24T11:35:35;17.00;52.50
62581;DHT22;48640;48.770;9.148;2023-04-24T11:38:03;17.80;49.50
62581;DHT22;48640;48.770;9.148;2023-04-24T11:40:31;17.70;48.10
62581;DHT22;48640;48.770;9.148;2023-04-24T11:43:00;17.50;49.50
62581;DHT22;48640;48.770;9.148;2023-04-24T11:45:28;17.10;49.50
62581;DHT22;48640;48.770;9.148;2023-04-24T11:47:56;16.50;50.30
62581;DHT22;48640;48.770;9.148;2023-04-24T11:50:26;14.80;51.50
62581;DHT22;48640;48.770;9.148;2023-04-24T11:52:54;15.00;53.50
62581;DHT22;48640;48.770;9.148;2023-04-24T11:55:26;14.80;54.70
62581;DHT22;48640;48.770;9.148;2023-04-24T11:57:54;14.90;56.70
62581;DHT22;48640;48.770;9.148;2023-04-24T12:00:24;15.10;57.70
62581;DHT22;48640;48.770;9.148;2023-04-24T12:02:51;15.50;56.40
62581;DHT22;48640;48.770;9.148;2023-04-24T12:05:23;16.10;55.50
62581;DHT22;48640;48.770;9.148;2023-04-24T12:07:50;16.40;54.10
62581;DHT22;48640;48.770;9.148;2023-04-24T12:10:21;16.70;52.50
62581;DHT22;48640;48.770;9.148;2023-04-24T12:12:49;16.90;51.80
62581;DHT22;48640;48.770;9.148;2023-04-24T12:15:18;16.50;52.10
62581;DHT22;48640;48.770;9.148;2023-04-24T12:17:45;16.10;52.50
62581;DHT22;48640;48.770;9.148;2023-04-24T12:20:13;15.20;52.70
62581;DHT22;48640;48.770;9.148;2023-04-24T12:22:44;14.70;54.00
62581;DHT22;48640;48.770;9.148;2023-04-24T12:25:12;14.20;54.40
62581;DHT22;48640;48.770;9.148;2023-04-24T12:27:40;13.80;55.00
62581;DHT22;48640;48.770;9.148;2023-04-24T12:30:11;14.20;56.90
62581;DHT22;48640;48.770;9.148;2023-04-24T12:32:41;14.30;55.30
62581;DHT22;48640;48.770;9.148;2023-04-24T12:35:09;14.40;55.50
62581;DHT22;48640;48.770;9.148;2023-04-24T12:37:36;14.30;55.60
62581;DHT22;48640;48.770;9.148;2023-04-24T12:40:07;14.40;55.30
62581;DHT22;48640;48.770;9.148;2023-04-24T12:42:35;15.10;54.90
62581;DHT22;48640;48.770;9.148;2023-04-24T12:45:05;15.10;53.40
62581;DHT22;48640;48.770;9.148;2023-04-24T12:47:33;15.30;53.60
62581;DHT22;48640;48.770;9.148;2023-04-24T12:50:01;15.40;53.10
62581;DHT22;48640;48.770;9.148;2023-04-24T12:52:29;15.00;52.80
62581;DHT22;48640;48.770;9.148;2023-04-24T12:54:58;14.70;53.10
62581;DHT22;48640;48.770;9.148;2023-04-24T12:57:26;14.30;53.90
62581;DHT22;48640;48.770;9.148;2023-04-24T12:59:54;14.10;55.00
62581;DHT22;48640;48.770;9.148;2023-04-24T13:02:23;14.20;56.10
62581;DHT22;48640;48.770;9.148;2023-04-24T13:04:50;14.20;57.10
62581;DHT22;48640;48.770;9.148;2023-04-24T13:07:17;13.40;57.60
62581;DHT22;48640;48.770;9.148;2023-04-24T13:09:44;13.50;62.10
62581;DHT22;48640;48.770;9.148;2023-04-24T13:12:12;12.90;65.70
62581;DHT22;48640;48.770;9.148;2023-04-24T13:14:39;13.30;68.10
62581;DHT22;48640;48.770;9.148;2023-04-24T13:17:06;13.30;71.70
62581;DHT22;48640;48.770;9.148;2023-04-24T13:19:37;13.60;70.80
62581;DHT22;48640;48.770;9.148;2023-04-24T13:22:04;13.80;67.80
62581;DHT22;48640;48.770;9.148;2023-04-24T13:24:32;14.20;66.90
62581;DHT22;48640;48.770;9.148;2023-04-24T13:26:59;14.60;67.10
62581;DHT22;48640;48.770;9.148;2023-04-24T13:29:26;14.50;63.30
62581;DHT22;48640;48.770;9.148;2023-04-24T13:31:53;14.70;63.40
62581;DHT22;48640;48.770;9.148;2023-04-24T13:34:21;14.90;63.90
62581;DHT22;48640;48.770;9.148;2023-04-24T13:36:49;14.30;65.10
62581;DHT22;48640;48.770;9.148;2023-04-24T13:39:16;14.50;63.90
62581;DHT22;48640;48.770;9.148;2023-04-24T13:41:43;14.20;63.30
62581;DHT22;48640;48.770;9.148;2023-04-24T13:44:10;13.50;63.20
62581;DHT22;48640;48.770;9.148;2023-04-24T13:46:37;13.50;66.20
62581;DHT22;48640;48.770;9.148;2023-04-24T13:49:04;13.30;67.60
62581;DHT22;48640;48.770;9.148;2023-04-24T13:51:31;13.40;74.70
62581;DHT22;48640;48.770;9.148;2023-04-24T13:53:59;12.70;76.90
62581;DHT22;48640;48.770;9.148;2023-04-24T13:56:26;12.40;78.50
62581;DHT22;48640;48.770;9.148;2023-04-24T13:58:53;12.10;84.00
62581;DHT22;48640;48.770;9.148;2023-04-24T14:01:20;11.90;86.20
62581;DHT22;48640;48.770;9.148;2023-04-24T14:03:49;11.90;87.70
62581;DHT22;48640;48.770;9.148;2023-04-24T14:06:16;12.00;90.10
62581;DHT22;48640;48.770;9.148;2023-04-24T14:08:43;12.80;88.60
62581;DHT22;48640;48.770;9.148;2023-04-24T14:11:11;12.40;86.40
62581;DHT22;48640;48.770;9.148;2023-04-24T14:13:39;12.20;87.40
62581;DHT22;48640;48.770;9.148;2023-04-24T14:16:07;12.50;86.10
62581;DHT22;48640;48.770;9.148;2023-04-24T14:18:34;13.00;86.20
62581;DHT22;48640;48.770;9.148;2023-04-24T14:21:01;12.90;85.30
62581;DHT22;48640;48.770;9.148;2023-04-24T14:23:28;13.20;84.00
62581;DHT22;48640;48.770;9.148;2023-04-24T14:25:56;13.30;84.50
62581;DHT22;48640;48.770;9.148;2023-04-24T14:28:25;13.30;83.80
62581;DHT22;48640;48.770;9.148;2023-04-24T14:30:52;13.20;81.50
62581;DHT22;48640;48.770;9.148;2023-04-24T14:33:19;12.80;81.70
62581;DHT22;48640;48.770;9.148;2023-04-24T14:35:46;13.10;79.00
62581;DHT22;48640;48.770;9.148;2023-04-24T14:38:14;12.80;77.60
62581;DHT22;48640;48.770;9.148;2023-04-24T14:40:41;12.50;76.20
62581;DHT22;48640;48.770;9.148;2023-04-24T14:43:08;12.40;77.60
62581;DHT22;48640;48.770;9.148;2023-04-24T14:45:36;12.40;79.20
62581;DHT22;48640;48.770;9.148;2023-04-24T14:48:04;12.40;82.80
62581;DHT22;48640;48.770;9.148;2023-04-24T14:50:30;12.80;80.30
62581;DHT22;48640;48.770;9.148;2023-04-24T14:52:57;12.80;79.60
62581;DHT22;48640;48.770;9.148;2023-04-24T14:55:24;12.80;78.60
62581;DHT22;48640;48.770;9.148;2023-04-24T14:57:51;13.10;77.50
62581;DHT22;48640;48.770;9.148;2023-04-24T15:00:19;13.10;77.00
62581;DHT22;48640;48.770;9.148;2023-04-24T15:02:50;13.70;76.00
62581;DHT22;48640;48.770;9.148;2023-04-24T15:05:16;13.60;73.90
62581;DHT22;48640;48.770;9.148;2023-04-24T15:07:43;13.50;73.60
62581;DHT22;48640;48.770;9.148;2023-04-24T15:10:10;12.80;74.90
62581;DHT22;48640;48.770;9.148;2023-04-24T15:12:37;12.80;75.00
62581;DHT22;48640;48.770;9.148;2023-04-24T15:15:05;12.70;74.60
62581;DHT22;48640;48.770;9.148;2023-04-24T15:17:32;13.20;74.40
62581;DHT22;48640;48.770;9.148;2023-04-24T15:20:00;12.50;73.30
62581;DHT22;48640;48.770;9.148;2023-04-24T15:22:28;13.00;74.40
62581;DHT22;48640;48.770;9.148;2023-04-24T15:24:55;13.00;74.70
62581;DHT22;48640;48.770;9.148;2023-04-24T15:27:22;13.20;74.70
62581;DHT22;48640;48.770;9.148;2023-04-24T15:29:48;13.00;73.60
62581;DHT22;48640;48.770;9.148;2023-04-24T15:32:15;12.80;74.00